sensor_id;sensor_type;location;lat;lon;timestamp;P1;durP1;ratioP1;P2;durP2;ratioP2
27491;SDS011;14927;51.210;6.838;2023-03-26T00:00:56;19.13;;;3.92;;
27491;SDS011;14927;51.210;6.838;2023-03-26T00:03:41;22.98;;;4.82;;
27491;SDS011;14927;51.210;6.838;2023-03-26T00:06:31;22.00;;;4.53;;
27491;SDS011;14927;51.210;6.838;2023-03-26T00:09:20;23.92;;;4.57;;
27491;SDS011;14927;51.210;6.838;2023-03-26T00:12:05;23.13;;;4.38;;
27491;SDS011;14927;51.210;6.838;2023-03-26T00:14:50;25.42;;;4.53;;
27491;SDS011;14927;51.210;6.838;2023-03-26T00:17:35;22.85;;;5.13;;
27491;SDS011;14927;51.210;6.838;2023-03-26T00:20:20;25.55;;;4.57;;
27491;SDS011;14927;51.210;6.838;2023-03-26T00:23:06;22.88;;;4.68;;
27491;SDS011;14927;51.210;6.838;2023-03-26T00:25:51;22.83;;;4.55;;
27491;SDS011;14927;51.210;6.838;2023-03-26T00:28:36;28.33;;;5.57;;
27491;SDS011;14927;51.210;6.838;2023-03-26T00:31:23;18.17;;;4.03;;
27491;SDS011;14927;51.210;6.838;2023-03-26T00:34:08;25.90;;;5.03;;
27491;SDS011;14927;51.210;6.838;2023-03-26T00:36:53;28.98;;;4.28;;
27491;SDS011;14927;51.210;6.838;2023-03-26T00:39:37;28.42;;;5.05;;
27491;SDS011;14927;51.210;6.838;2023-03-26T00:42:22;24.58;;;5.30;;
27491;SDS011;14927;51.210;6.838;2023-03-26T00:45:07;27.20;;;4.97;;
27491;SDS011;14927;51.210;6.838;2023-03-26T00:47:53;31.33;;;4.95;;
27491;SDS011;14927;51.210;6.838;2023-03-26T00:50:37;20.92;;;4.15;;
27491;SDS011;14927;51.210;6.838;2023-03-26T00:53:23;21.60;;;4.45;;
27491;SDS011;14927;51.210;6.838;2023-03-26T00:56:07;25.40;;;4.70;;
27491;SDS011;14927;51.210;6.838;2023-03-26T00:58:53;23.40;;;5.05;;
27491;SDS011;14927;51.210;6.838;2023-03-26T01:01:37;22.25;;;4.15;;
27491;SDS011;14927;51.210;6.838;2023-03-26T01:07:14;19.95;;;4.53;;
27491;SDS011;14927;51.210;6.838;2023-03-26T01:10:04;26.85;;;4.82;;
27491;SDS011;14927;51.210;6.838;2023-03-26T01:12:50;21.80;;;4.03;;
27491;SDS011;14927;51.210;6.838;2023-03-26T01:15:35;38.60;;;5.70;;
27491;SDS011;14927;51.210;6.838;2023-03-26T01:18:22;32.33;;;5.03;;
27491;SDS011;14927;51.210;6.838;2023-03-26T01:21:10;20.80;;;4.45;;
27491;SDS011;14927;51.210;6.838;2023-03-26T01:30:09;19.33;;;4.22;;
27491;SDS011;14927;51.210;6.838;2023-03-26T01:33:19;28.90;;;4.50;;
27491;SDS011;14927;51.210;6.838;2023-03-26T01:41:55;29.25;;;4.82;;
27491;SDS011;14927;51.210;6.838;2023-03-26T01:47:38;22.40;;;4.65;;
27491;SDS011;14927;51.210;6.838;2023-03-26T01:50:25;23.38;;;4.70;;
27491;SDS011;14927;51.210;6.838;2023-03-26T01:53:09;27.83;;;4.20;;
27491;SDS011;14927;51.210;6.838;2023-03-26T02:02:11;32.67;;;5.55;;
27491;SDS011;14927;51.210;6.838;2023-03-26T02:05:23;28.33;;;4.57;;
27491;SDS011;14927;51.210;6.838;2023-03-26T02:08:15;32.50;;;5.13;;
27491;SDS011;14927;51.210;6.838;2023-03-26T02:11:11;21.48;;;4.45;;
27491;SDS011;14927;51.210;6.838;2023-03-26T02:13:57;21.70;;;4.30;;
27491;SDS011;14927;51.210;6.838;2023-03-26T02:16:42;28.45;;;5.10;;
27491;SDS011;14927;51.210;6.838;2023-03-26T02:19:29;25.98;;;5.13;;
27491;SDS011;14927;51.210;6.838;2023-03-26T02:22:14;23.13;;;4.70;;
27491;SDS011;14927;51.210;6.838;2023-03-26T02:24:58;27.95;;;4.68;;
27491;SDS011;14927;51.210;6.838;2023-03-26T02:27:43;24.15;;;4.95;;
27491;SDS011;14927;51.210;6.838;2023-03-26T02:30:29;29.80;;;5.00;;
27491;SDS011;14927;51.210;6.838;2023-03-26T02:33:16;20.95;;;3.78;;
27491;SDS011;14927;51.210;6.838;2023-03-26T02:36:01;23.42;;;4.20;;
27491;SDS011;14927;51.210;6.838;2023-03-26T02:38:46;23.40;;;4.72;;
27491;SDS011;14927;51.210;6.838;2023-03-26T02:41:31;24.38;;;4.65;;
27491;SDS011;14927;51.210;6.838;2023-03-26T02:44:16;21.40;;;4.40;;
27491;SDS011;14927;51.210;6.838;2023-03-26T02:47:00;25.20;;;4.55;;
27491;SDS011;14927;51.210;6.838;2023-03-26T02:49:45;31.35;;;6.40;;
27491;SDS011;14927;51.210;6.838;2023-03-26T02:52:30;27.75;;;4.82;;
27491;SDS011;14927;51.210;6.838;2023-03-26T02:55:16;23.75;;;4.47;;
27491;SDS011;14927;51.210;6.838;2023-03-26T02:58:00;27.73;;;5.00;;
27491;SDS011;14927;51.210;6.838;2023-03-26T03:00:46;24.83;;;4.60;;
27491;SDS011;14927;51.210;6.838;2023-03-26T03:03:33;23.58;;;4.55;;
27491;SDS011;14927;51.210;6.838;2023-03-26T03:06:19;21.92;;;4.53;;
27491;SDS011;14927;51.210;6.838;2023-03-26T03:09:04;18.98;;;3.97;;
27491;SDS011;14927;51.210;6.838;2023-03-26T03:11:51;22.90;;;4.85;;
27491;SDS011;14927;51.210;6.838;2023-03-26T03:14:35;17.92;;;3.88;;
27491;SDS011;14927;51.210;6.838;2023-03-26T03:17:20;17.85;;;3.78;;
27491;SDS011;14927;51.210;6.838;2023-03-26T03:20:06;27.63;;;4.22;;
27491;SDS011;14927;51.210;6.838;2023-03-26T03:22:53;23.25;;;4.00;;
27491;SDS011;14927;51.210;6.838;2023-03-26T03:25:38;22.33;;;3.72;;
27491;SDS011;14927;51.210;6.838;2023-03-26T03:28:24;18.92;;;3.88;;
27491;SDS011;14927;51.210;6.838;2023-03-26T03:31:09;18.23;;;3.20;;
27491;SDS011;14927;51.210;6.838;2023-03-26T03:33:54;20.77;;;4.05;;
27491;SDS011;14927;51.210;6.838;2023-03-26T03:36:38;21.23;;;4.28;;
27491;SDS011;14927;51.210;6.838;2023-03-26T03:39:23;21.73;;;4.00;;
27491;SDS011;14927;51.210;6.838;2023-03-26T03:42:08;21.50;;;3.83;;
27491;SDS011;14927;51.210;6.838;2023-03-26T03:44:53;18.67;;;3.88;;
27491;SDS011;14927;51.210;6.838;2023-03-26T03:47:37;22.63;;;4.57;;
27491;SDS011;14927;51.210;6.838;2023-03-26T03:50:22;25.35;;;4.45;;
27491;SDS011;14927;51.210;6.838;2023-03-26T03:53:07;20.27;;;3.78;;
27491;SDS011;14927;51.210;6.838;2023-03-26T03:55:55;18.52;;;4.13;;
27491;SDS011;14927;51.210;6.838;2023-03-26T03:58:40;16.73;;;3.65;;
27491;SDS011;14927;51.210;6.838;2023-03-26T04:01:25;17.50;;;3.60;;
27491;SDS011;14927;51.210;6.838;2023-03-26T04:04:09;23.92;;;4.40;;
27491;SDS011;14927;51.210;6.838;2023-03-26T04:12:10;21.55;;;4.25;;
27491;SDS011;14927;51.210;6.838;2023-03-26T04:14:55;20.25;;;3.60;;
27491;SDS011;14927;51.210;6.838;2023-03-26T04:20:18;19.75;;;4.75;;
27491;SDS011;14927;51.210;6.838;2023-03-26T04:23:03;22.77;;;4.88;;
27491;SDS011;14927;51.210;6.838;2023-03-26T04:25:50;19.50;;;4.13;;
27491;SDS011;14927;51.210;6.838;2023-03-26T04:34:22;23.70;;;4.32;;
27491;SDS011;14927;51.210;6.838;2023-03-26T04:37:08;18.83;;;3.75;;
27491;SDS011;14927;51.210;6.838;2023-03-26T04:40:05;12.77;;;3.65;;
27491;SDS011;14927;51.210;6.838;2023-03-26T04:42:59;24.48;;;4.25;;
27491;SDS011;14927;51.210;6.838;2023-03-26T04:45:45;19.98;;;3.90;;
27491;SDS011;14927;51.210;6.838;2023-03-26T04:48:30;16.88;;;3.60;;
27491;SDS011;14927;51.210;6.838;2023-03-26T04:51:16;20.33;;;3.70;;
27491;SDS011;14927;51.210;6.838;2023-03-26T04:54:04;19.70;;;3.85;;
27491;SDS011;14927;51.210;6.838;2023-03-26T04:56:54;23.33;;;4.28;;
27491;SDS011;14927;51.210;6.838;2023-03-26T04:59:42;14.95;;;3.33;;
27491;SDS011;14927;51.210;6.838;2023-03-26T05:02:27;19.08;;;3.95;;
27491;SDS011;14927;51.210;6.838;2023-03-26T05:05:13;20.75;;;3.50;;
27491;SDS011;14927;51.210;6.838;2023-03-26T05:07:57;19.20;;;3.88;;
27491;SDS011;14927;51.210;6.838;2023-03-26T05:10:42;20.77;;;3.55;;
27491;SDS011;14927;51.210;6.838;2023-03-26T05:13:26;20.67;;;3.58;;
27491;SDS011;14927;51.210;6.838;2023-03-26T05:16:11;20.67;;;3.53;;
27491;SDS011;14927;51.210;6.838;2023-03-26T05:18:56;17.88;;;4.15;;
27491;SDS011;14927;51.210;6.838;2023-03-26T05:21:41;13.18;;;3.70;;
27491;SDS011;14927;51.210;6.838;2023-03-26T05:24:25;14.00;;;3.13;;
27491;SDS011;14927;51.210;6.838;2023-03-26T05:27:17;17.98;;;3.38;;
27491;SDS011;14927;51.210;6.838;2023-03-26T05:30:06;16.98;;;4.13;;
27491;SDS011;14927;51.210;6.838;2023-03-26T05:32:51;20.02;;;5.00;;
27491;SDS011;14927;51.210;6.838;2023-03-26T05:35:36;16.27;;;4.93;;
27491;SDS011;14927;51.210;6.838;2023-03-26T05:38:20;18.17;;;4.07;;
27491;SDS011;14927;51.210;6.838;2023-03-26T05:41:12;18.73;;;4.20;;
27491;SDS011;14927;51.210;6.838;2023-03-26T05:43:56;21.20;;;4.30;;
27491;SDS011;14927;51.210;6.838;2023-03-26T05:46:41;20.42;;;4.07;;
27491;SDS011;14927;51.210;6.838;2023-03-26T05:49:28;21.98;;;4.03;;
27491;SDS011;14927;51.210;6.838;2023-03-26T05:52:14;20.13;;;3.45;;
27491;SDS011;14927;51.210;6.838;2023-03-26T05:55:01;16.08;;;3.75;;
27491;SDS011;14927;51.210;6.838;2023-03-26T05:57:47;20.42;;;3.78;;
27491;SDS011;14927;51.210;6.838;2023-03-26T06:00:32;18.00;;;3.85;;
27491;SDS011;14927;51.210;6.838;2023-03-26T06:03:16;21.88;;;3.80;;
27491;SDS011;14927;51.210;6.838;2023-03-26T06:06:01;14.30;;;3.17;;
27491;SDS011;14927;51.210;6.838;2023-03-26T06:08:47;13.10;;;3.83;;
27491;SDS011;14927;51.210;6.838;2023-03-26T06:11:34;18.75;;;3.47;;
27491;SDS011;14927;51.210;6.838;2023-03-26T06:14:19;18.27;;;3.95;;
27491;SDS011;14927;51.210;6.838;2023-03-26T06:17:03;17.95;;;3.08;;
27491;SDS011;14927;51.210;6.838;2023-03-26T06:19:51;15.23;;;3.33;;
27491;SDS011;14927;51.210;6.838;2023-03-26T06:22:36;21.05;;;4.35;;
27491;SDS011;14927;51.210;6.838;2023-03-26T06:25:21;23.00;;;4.32;;
27491;SDS011;14927;51.210;6.838;2023-03-26T06:28:05;17.75;;;3.63;;
27491;SDS011;14927;51.210;6.838;2023-03-26T06:30:50;14.25;;;3.40;;
27491;SDS011;14927;51.210;6.838;2023-03-26T06:33:36;18.63;;;3.53;;
27491;SDS011;14927;51.210;6.838;2023-03-26T06:36:21;15.95;;;3.05;;
27491;SDS011;14927;51.210;6.838;2023-03-26T06:39:06;13.18;;;3.28;;
27491;SDS011;14927;51.210;6.838;2023-03-26T06:41:51;14.48;;;3.33;;
27491;SDS011;14927;51.210;6.838;2023-03-26T06:44:36;17.88;;;3.25;;
27491;SDS011;14927;51.210;6.838;2023-03-26T06:47:20;20.13;;;4.30;;
27491;SDS011;14927;51.210;6.838;2023-03-26T06:50:07;25.75;;;4.30;;
27491;SDS011;14927;51.210;6.838;2023-03-26T06:52:55;15.40;;;4.18;;
27491;SDS011;14927;51.210;6.838;2023-03-26T06:55:40;19.25;;;4.22;;
27491;SDS011;14927;51.210;6.838;2023-03-26T06:58:26;17.02;;;4.22;;
27491;SDS011;14927;51.210;6.838;2023-03-26T07:01:12;20.95;;;5.15;;
27491;SDS011;14927;51.210;6.838;2023-03-26T07:03:57;15.23;;;4.57;;
27491;SDS011;14927;51.210;6.838;2023-03-26T07:06:42;21.42;;;4.97;;
27491;SDS011;14927;51.210;6.838;2023-03-26T07:09:29;19.77;;;4.00;;
27491;SDS011;14927;51.210;6.838;2023-03-26T07:12:13;13.35;;;3.30;;
27491;SDS011;14927;51.210;6.838;2023-03-26T07:14:58;20.02;;;4.13;;
27491;SDS011;14927;51.210;6.838;2023-03-26T07:17:45;13.20;;;3.50;;
27491;SDS011;14927;51.210;6.838;2023-03-26T07:20:29;9.93;;;3.13;;
27491;SDS011;14927;51.210;6.838;2023-03-26T07:23:14;19.17;;;3.20;;
27491;SDS011;14927;51.210;6.838;2023-03-26T07:35:37;14.98;;;3.10;;
27491;SDS011;14927;51.210;6.838;2023-03-26T07:41:34;13.27;;;3.33;;
27491;SDS011;14927;51.210;6.838;2023-03-26T07:47:31;12.68;;;3.42;;
27491;SDS011;14927;51.210;6.838;2023-03-26T07:50:17;12.13;;;2.90;;
27491;SDS011;14927;51.210;6.838;2023-03-26T07:53:05;16.38;;;3.85;;
27491;SDS011;14927;51.210;6.838;2023-03-26T08:08:18;10.68;;;2.70;;
27491;SDS011;14927;51.210;6.838;2023-03-26T08:21:10;21.80;;;3.72;;
27491;SDS011;14927;51.210;6.838;2023-03-26T08:24:12;13.65;;;3.17;;
27491;SDS011;14927;51.210;6.838;2023-03-26T08:27:20;11.77;;;2.95;;
27491;SDS011;14927;51.210;6.838;2023-03-26T08:30:23;13.38;;;3.03;;
27491;SDS011;14927;51.210;6.838;2023-03-26T08:33:19;10.32;;;2.38;;
27491;SDS011;14927;51.210;6.838;2023-03-26T08:36:04;17.73;;;3.00;;
27491;SDS011;14927;51.210;6.838;2023-03-26T08:38:52;11.50;;;2.85;;
27491;SDS011;14927;51.210;6.838;2023-03-26T08:48:02;14.38;;;3.65;;
27491;SDS011;14927;51.210;6.838;2023-03-26T08:51:20;14.52;;;3.42;;
27491;SDS011;14927;51.210;6.838;2023-03-26T09:22:08;12.57;;;2.65;;
27491;SDS011;14927;51.210;6.838;2023-03-26T09:38:42;5.88;;;1.98;;
27491;SDS011;14927;51.210;6.838;2023-03-26T09:47:49;6.97;;;1.70;;
27491;SDS011;14927;51.210;6.838;2023-03-26T09:57:26;6.05;;;1.13;;
27491;SDS011;14927;51.210;6.838;2023-03-26T10:03:56;4.43;;;1.00;;
27491;SDS011;14927;51.210;6.838;2023-03-26T10:13:32;3.97;;;1.27;;
27491;SDS011;14927;51.210;6.838;2023-03-26T10:37:08;5.57;;;1.75;;
27491;SDS011;14927;51.210;6.838;2023-03-26T10:40:01;4.15;;;1.73;;
27491;SDS011;14927;51.210;6.838;2023-03-26T10:52:11;2.00;;;0.85;;
27491;SDS011;14927;51.210;6.838;2023-03-26T10:55:18;0.90;;;0.47;;
27491;SDS011;14927;51.210;6.838;2023-03-26T11:01:11;2.95;;;0.65;;
27491;SDS011;14927;51.210;6.838;2023-03-26T11:04:15;3.25;;;0.68;;
27491;SDS011;14927;51.210;6.838;2023-03-26T11:08:13;1.73;;;0.43;;
27491;SDS011;14927;51.210;6.838;2023-03-26T11:17:01;2.13;;;0.70;;
27491;SDS011;14927;51.210;6.838;2023-03-26T11:20:13;3.78;;;0.82;;
27491;SDS011;14927;51.210;6.838;2023-03-26T11:26:31;1.20;;;0.60;;
27491;SDS011;14927;51.210;6.838;2023-03-26T11:29:45;2.03;;;0.60;;
27491;SDS011;14927;51.210;6.838;2023-03-26T11:32:53;0.95;;;0.60;;
27491;SDS011;14927;51.210;6.838;2023-03-26T11:38:28;3.40;;;1.02;;
27491;SDS011;14927;51.210;6.838;2023-03-26T11:41:24;2.10;;;0.52;;
27491;SDS011;14927;51.210;6.838;2023-03-26T11:44:18;1.83;;;0.75;;
27491;SDS011;14927;51.210;6.838;2023-03-26T11:47:12;1.92;;;0.70;;
27491;SDS011;14927;51.210;6.838;2023-03-26T11:50:10;2.03;;;0.70;;
27491;SDS011;14927;51.210;6.838;2023-03-26T11:53:11;2.92;;;1.00;;
27491;SDS011;14927;51.210;6.838;2023-03-26T12:08:27;1.08;;;0.52;;
27491;SDS011;14927;51.210;6.838;2023-03-26T12:11:17;3.95;;;0.50;;
27491;SDS011;14927;51.210;6.838;2023-03-26T12:14:14;0.85;;;0.50;;
27491;SDS011;14927;51.210;6.838;2023-03-26T12:17:05;1.75;;;0.65;;
27491;SDS011;14927;51.210;6.838;2023-03-26T12:19:54;1.15;;;0.65;;
27491;SDS011;14927;51.210;6.838;2023-03-26T12:22:39;0.85;;;0.45;;
27491;SDS011;14927;51.210;6.838;2023-03-26T12:25:30;1.67;;;0.50;;
27491;SDS011;14927;51.210;6.838;2023-03-26T12:28:17;1.77;;;0.80;;
27491;SDS011;14927;51.210;6.838;2023-03-26T12:31:03;2.20;;;0.65;;
27491;SDS011;14927;51.210;6.838;2023-03-26T12:34:05;0.82;;;0.50;;
27491;SDS011;14927;51.210;6.838;2023-03-26T12:36:59;1.08;;;0.50;;
27491;SDS011;14927;51.210;6.838;2023-03-26T12:39:46;2.88;;;0.70;;
27491;SDS011;14927;51.210;6.838;2023-03-26T12:42:31;1.73;;;0.60;;
27491;SDS011;14927;51.210;6.838;2023-03-26T12:45:18;0.60;;;0.40;;
27491;SDS011;14927;51.210;6.838;2023-03-26T12:48:12;0.43;;;0.30;;
27491;SDS011;14927;51.210;6.838;2023-03-26T12:57:19;2.50;;;0.65;;
27491;SDS011;14927;51.210;6.838;2023-03-26T13:00:19;0.60;;;0.30;;
27491;SDS011;14927;51.210;6.838;2023-03-26T13:06:44;1.25;;;0.50;;
27491;SDS011;14927;51.210;6.838;2023-03-26T13:17:14;3.40;;;0.60;;
27491;SDS011;14927;51.210;6.838;2023-03-26T13:20:23;1.48;;;0.50;;
27491;SDS011;14927;51.210;6.838;2023-03-26T13:26:45;1.35;;;0.50;;
27491;SDS011;14927;51.210;6.838;2023-03-26T13:39:26;0.60;;;0.50;;
27491;SDS011;14927;51.210;6.838;2023-03-26T13:45:59;0.57;;;0.40;;
27491;SDS011;14927;51.210;6.838;2023-03-26T13:51:56;1.27;;;0.73;;
27491;SDS011;14927;51.210;6.838;2023-03-26T13:54:53;1.52;;;0.90;;
27491;SDS011;14927;51.210;6.838;2023-03-26T14:00:58;0.70;;;0.57;;
27491;SDS011;14927;51.210;6.838;2023-03-26T14:04:18;2.38;;;0.70;;
27491;SDS011;14927;51.210;6.838;2023-03-26T14:07:17;0.40;;;0.30;;
27491;SDS011;14927;51.210;6.838;2023-03-26T14:10:11;1.15;;;0.40;;
27491;SDS011;14927;51.210;6.838;2023-03-26T14:25:41;0.52;;;0.20;;
27491;SDS011;14927;51.210;6.838;2023-03-26T14:29:16;0.45;;;0.30;;
27491;SDS011;14927;51.210;6.838;2023-03-26T14:35:40;0.52;;;0.47;;
27491;SDS011;14927;51.210;6.838;2023-03-26T14:38:48;2.73;;;0.33;;
27491;SDS011;14927;51.210;6.838;2023-03-26T14:42:23;0.40;;;0.20;;
27491;SDS011;14927;51.210;6.838;2023-03-26T14:52:15;0.40;;;0.30;;
27491;SDS011;14927;51.210;6.838;2023-03-26T15:11:33;0.60;;;0.60;;
27491;SDS011;14927;51.210;6.838;2023-03-26T15:14:52;1.05;;;0.60;;
27491;SDS011;14927;51.210;6.838;2023-03-26T15:45:51;1.08;;;0.70;;
27491;SDS011;14927;51.210;6.838;2023-03-26T15:49:15;2.22;;;0.80;;
27491;SDS011;14927;51.210;6.838;2023-03-26T15:52:20;1.80;;;0.88;;
27491;SDS011;14927;51.210;6.838;2023-03-26T15:55:39;3.33;;;1.10;;
27491;SDS011;14927;51.210;6.838;2023-03-26T15:58:48;3.25;;;1.20;;
27491;SDS011;14927;51.210;6.838;2023-03-26T16:05:00;1.60;;;0.70;;
27491;SDS011;14927;51.210;6.838;2023-03-26T16:15:27;2.00;;;0.70;;
27491;SDS011;14927;51.210;6.838;2023-03-26T16:30:01;2.00;;;1.27;;
27491;SDS011;14927;51.210;6.838;2023-03-26T16:33:18;2.63;;;1.50;;
27491;SDS011;14927;51.210;6.838;2023-03-26T16:36:05;3.75;;;1.55;;
27491;SDS011;14927;51.210;6.838;2023-03-26T16:45:20;1.95;;;1.02;;
27491;SDS011;14927;51.210;6.838;2023-03-26T16:52:42;3.17;;;1.50;;
27491;SDS011;14927;51.210;6.838;2023-03-26T17:01:15;5.57;;;3.38;;
27491;SDS011;14927;51.210;6.838;2023-03-26T17:04:15;11.88;;;4.28;;
27491;SDS011;14927;51.210;6.838;2023-03-26T17:13:02;16.45;;;5.22;;
27491;SDS011;14927;51.210;6.838;2023-03-26T17:16:14;14.85;;;4.80;;
27491;SDS011;14927;51.210;6.838;2023-03-26T17:19:24;16.27;;;5.05;;
27491;SDS011;14927;51.210;6.838;2023-03-26T17:22:50;19.25;;;5.22;;
27491;SDS011;14927;51.210;6.838;2023-03-26T17:26:05;14.52;;;5.35;;
27491;SDS011;14927;51.210;6.838;2023-03-26T17:35:42;14.57;;;4.50;;
27491;SDS011;14927;51.210;6.838;2023-03-26T17:45:00;13.45;;;3.55;;
27491;SDS011;14927;51.210;6.838;2023-03-26T17:51:00;15.30;;;4.35;;
27491;SDS011;14927;51.210;6.838;2023-03-26T17:53:59;13.52;;;4.03;;
27491;SDS011;14927;51.210;6.838;2023-03-26T17:56:44;11.75;;;3.80;;
27491;SDS011;14927;51.210;6.838;2023-03-26T17:59:30;15.68;;;4.05;;
27491;SDS011;14927;51.210;6.838;2023-03-26T18:02:17;15.25;;;4.57;;
27491;SDS011;14927;51.210;6.838;2023-03-26T18:05:16;16.83;;;4.13;;
27491;SDS011;14927;51.210;6.838;2023-03-26T18:08:04;16.83;;;4.28;;
27491;SDS011;14927;51.210;6.838;2023-03-26T18:18:12;17.02;;;3.55;;
27491;SDS011;14927;51.210;6.838;2023-03-26T18:21:05;12.13;;;3.45;;
27491;SDS011;14927;51.210;6.838;2023-03-26T18:23:52;11.77;;;3.17;;
27491;SDS011;14927;51.210;6.838;2023-03-26T18:29:29;15.70;;;3.55;;
27491;SDS011;14927;51.210;6.838;2023-03-26T18:32:19;14.18;;;3.88;;
27491;SDS011;14927;51.210;6.838;2023-03-26T18:35:16;14.55;;;2.78;;
27491;SDS011;14927;51.210;6.838;2023-03-26T18:38:04;13.98;;;2.42;;
27491;SDS011;14927;51.210;6.838;2023-03-26T18:40:59;10.68;;;2.60;;
27491;SDS011;14927;51.210;6.838;2023-03-26T18:43:45;12.98;;;3.17;;
27491;SDS011;14927;51.210;6.838;2023-03-26T18:46:31;13.85;;;2.95;;
27491;SDS011;14927;51.210;6.838;2023-03-26T18:49:17;14.05;;;2.83;;
27491;SDS011;14927;51.210;6.838;2023-03-26T18:52:03;13.93;;;2.70;;
27491;SDS011;14927;51.210;6.838;2023-03-26T18:54:50;13.43;;;2.33;;
27491;SDS011;14927;51.210;6.838;2023-03-26T18:57:36;18.70;;;2.45;;
27491;SDS011;14927;51.210;6.838;2023-03-26T19:00:22;14.90;;;2.75;;
27491;SDS011;14927;51.210;6.838;2023-03-26T19:03:12;14.05;;;2.83;;
27491;SDS011;14927;51.210;6.838;2023-03-26T19:06:03;10.02;;;2.67;;
27491;SDS011;14927;51.210;6.838;2023-03-26T19:08:52;13.57;;;2.63;;
27491;SDS011;14927;51.210;6.838;2023-03-26T19:11:39;11.77;;;2.55;;
27491;SDS011;14927;51.210;6.838;2023-03-26T19:14:24;17.38;;;2.92;;
27491;SDS011;14927;51.210;6.838;2023-03-26T19:17:11;14.43;;;2.65;;
27491;SDS011;14927;51.210;6.838;2023-03-26T19:19:59;20.90;;;3.38;;
27491;SDS011;14927;51.210;6.838;2023-03-26T19:22:52;13.35;;;2.45;;
27491;SDS011;14927;51.210;6.838;2023-03-26T19:25:42;10.77;;;2.28;;
27491;SDS011;14927;51.210;6.838;2023-03-26T19:28:37;13.18;;;2.78;;
27491;SDS011;14927;51.210;6.838;2023-03-26T19:31:37;14.77;;;3.13;;
27491;SDS011;14927;51.210;6.838;2023-03-26T19:40:21;17.55;;;3.38;;
27491;SDS011;14927;51.210;6.838;2023-03-26T19:43:12;16.75;;;2.85;;
27491;SDS011;14927;51.210;6.838;2023-03-26T19:45:59;16.65;;;2.67;;
27491;SDS011;14927;51.210;6.838;2023-03-26T19:48:44;16.88;;;3.47;;
27491;SDS011;14927;51.210;6.838;2023-03-26T19:51:35;12.52;;;2.75;;
27491;SDS011;14927;51.210;6.838;2023-03-26T19:54:20;13.20;;;2.78;;
27491;SDS011;14927;51.210;6.838;2023-03-26T19:57:06;19.80;;;4.03;;
27491;SDS011;14927;51.210;6.838;2023-03-26T19:59:52;14.07;;;2.78;;
27491;SDS011;14927;51.210;6.838;2023-03-26T20:02:42;13.43;;;2.55;;
27491;SDS011;14927;51.210;6.838;2023-03-26T20:05:31;13.15;;;2.40;;
27491;SDS011;14927;51.210;6.838;2023-03-26T20:08:17;12.65;;;2.00;;
27491;SDS011;14927;51.210;6.838;2023-03-26T20:11:13;16.17;;;2.25;;
27491;SDS011;14927;51.210;6.838;2023-03-26T20:14:09;18.08;;;3.47;;
27491;SDS011;14927;51.210;6.838;2023-03-26T20:17:03;18.98;;;2.88;;
27491;SDS011;14927;51.210;6.838;2023-03-26T20:19:54;14.23;;;3.08;;
27491;SDS011;14927;51.210;6.838;2023-03-26T20:22:38;13.98;;;2.65;;
27491;SDS011;14927;51.210;6.838;2023-03-26T20:25:28;14.13;;;2.60;;
27491;SDS011;14927;51.210;6.838;2023-03-26T20:28:17;14.32;;;2.90;;
27491;SDS011;14927;51.210;6.838;2023-03-26T20:31:04;19.25;;;2.88;;
27491;SDS011;14927;51.210;6.838;2023-03-26T20:33:51;13.32;;;2.45;;
27491;SDS011;14927;51.210;6.838;2023-03-26T20:36:37;13.73;;;2.38;;
27491;SDS011;14927;51.210;6.838;2023-03-26T20:39:22;12.75;;;2.70;;
27491;SDS011;14927;51.210;6.838;2023-03-26T20:42:08;15.95;;;2.30;;
27491;SDS011;14927;51.210;6.838;2023-03-26T20:44:54;10.18;;;2.25;;
27491;SDS011;14927;51.210;6.838;2023-03-26T20:47:40;12.85;;;2.33;;
27491;SDS011;14927;51.210;6.838;2023-03-26T20:50:25;13.85;;;2.42;;
27491;SDS011;14927;51.210;6.838;2023-03-26T20:53:11;18.52;;;2.50;;
27491;SDS011;14927;51.210;6.838;2023-03-26T20:55:59;14.25;;;2.28;;
27491;SDS011;14927;51.210;6.838;2023-03-26T20:58:45;9.98;;;2.72;;
27491;SDS011;14927;51.210;6.838;2023-03-26T21:01:37;14.27;;;3.08;;
27491;SDS011;14927;51.210;6.838;2023-03-26T21:04:22;9.75;;;2.08;;
27491;SDS011;14927;51.210;6.838;2023-03-26T21:07:07;11.23;;;2.10;;
27491;SDS011;14927;51.210;6.838;2023-03-26T21:09:53;20.98;;;2.05;;
27491;SDS011;14927;51.210;6.838;2023-03-26T21:12:43;11.27;;;1.98;;
27491;SDS011;14927;51.210;6.838;2023-03-26T21:15:53;20.73;;;2.35;;
27491;SDS011;14927;51.210;6.838;2023-03-26T21:18:39;9.18;;;1.92;;
27491;SDS011;14927;51.210;6.838;2023-03-26T21:31:24;13.38;;;1.83;;
27491;SDS011;14927;51.210;6.838;2023-03-26T21:34:11;19.67;;;2.40;;
27491;SDS011;14927;51.210;6.838;2023-03-26T21:36:56;13.45;;;2.60;;
27491;SDS011;14927;51.210;6.838;2023-03-26T21:39:42;10.77;;;1.70;;
27491;SDS011;14927;51.210;6.838;2023-03-26T21:42:28;11.85;;;2.40;;
27491;SDS011;14927;51.210;6.838;2023-03-26T21:45:13;14.10;;;2.25;;
27491;SDS011;14927;51.210;6.838;2023-03-26T21:47:59;10.82;;;1.65;;
27491;SDS011;14927;51.210;6.838;2023-03-26T21:50:43;13.05;;;2.03;;
27491;SDS011;14927;51.210;6.838;2023-03-26T21:53:28;10.07;;;2.17;;
27491;SDS011;14927;51.210;6.838;2023-03-26T22:08:47;11.48;;;2.05;;
27491;SDS011;14927;51.210;6.838;2023-03-26T22:11:31;9.63;;;1.88;;
27491;SDS011;14927;51.210;6.838;2023-03-26T22:14:16;14.73;;;2.40;;
27491;SDS011;14927;51.210;6.838;2023-03-26T22:17:01;18.08;;;2.35;;
27491;SDS011;14927;51.210;6.838;2023-03-26T22:19:46;18.08;;;2.08;;
27491;SDS011;14927;51.210;6.838;2023-03-26T22:22:31;8.73;;;1.90;;
27491;SDS011;14927;51.210;6.838;2023-03-26T22:25:18;13.60;;;2.47;;
27491;SDS011;14927;51.210;6.838;2023-03-26T22:28:04;14.98;;;2.45;;
27491;SDS011;14927;51.210;6.838;2023-03-26T22:30:49;12.13;;;1.90;;
27491;SDS011;14927;51.210;6.838;2023-03-26T22:33:35;9.73;;;1.60;;
27491;SDS011;14927;51.210;6.838;2023-03-26T22:36:22;9.77;;;2.03;;
27491;SDS011;14927;51.210;6.838;2023-03-26T22:39:07;18.50;;;2.22;;
27491;SDS011;14927;51.210;6.838;2023-03-26T22:41:52;15.23;;;2.42;;
27491;SDS011;14927;51.210;6.838;2023-03-26T22:44:37;17.55;;;2.50;;
27491;SDS011;14927;51.210;6.838;2023-03-26T22:47:22;11.75;;;1.60;;
27491;SDS011;14927;51.210;6.838;2023-03-26T22:50:07;13.80;;;1.90;;
27491;SDS011;14927;51.210;6.838;2023-03-26T22:52:53;14.27;;;2.25;;
27491;SDS011;14927;51.210;6.838;2023-03-26T22:55:37;9.35;;;1.83;;
27491;SDS011;14927;51.210;6.838;2023-03-26T22:58:22;11.73;;;2.10;;
27491;SDS011;14927;51.210;6.838;2023-03-26T23:01:26;11.75;;;1.83;;
27491;SDS011;14927;51.210;6.838;2023-03-26T23:04:11;17.73;;;3.10;;
27491;SDS011;14927;51.210;6.838;2023-03-26T23:06:56;14.90;;;2.20;;
27491;SDS011;14927;51.210;6.838;2023-03-26T23:09:41;10.05;;;1.73;;
27491;SDS011;14927;51.210;6.838;2023-03-26T23:12:26;10.65;;;1.95;;
27491;SDS011;14927;51.210;6.838;2023-03-26T23:15:10;15.13;;;2.28;;
27491;SDS011;14927;51.210;6.838;2023-03-26T23:17:56;11.65;;;1.67;;
27491;SDS011;14927;51.210;6.838;2023-03-26T23:20:52;17.25;;;2.03;;
27491;SDS011;14927;51.210;6.838;2023-03-26T23:23:39;12.35;;;2.00;;
27491;SDS011;14927;51.210;6.838;2023-03-26T23:26:24;13.70;;;1.85;;
27491;SDS011;14927;51.210;6.838;2023-03-26T23:29:08;9.20;;;1.85;;
27491;SDS011;14927;51.210;6.838;2023-03-26T23:31:54;11.60;;;2.38;;
27491;SDS011;14927;51.210;6.838;2023-03-26T23:34:39;15.98;;;2.10;;
27491;SDS011;14927;51.210;6.838;2023-03-26T23:37:24;18.08;;;2.97;;
27491;SDS011;14927;51.210;6.838;2023-03-26T23:40:24;13.55;;;1.88;;
27491;SDS011;14927;51.210;6.838;2023-03-26T23:43:08;15.52;;;2.25;;
27491;SDS011;14927;51.210;6.838;2023-03-26T23:45:53;10.15;;;1.98;;